Time;durP1;ratioP1;P1;durP2;ratioP2;P2;SDS_P1;SDS_P2;PMS_P1;PMS_P2;Temp;Humidity;BMP_temperature;BMP_pressure;BME280_temperature;BME280_humidity;BME280_pressure;Samples;Min_cycle;Max_cycle;Signal;HPM_P1;HPM_P2
2021/07/14 00:00:33;;;;;;;;;31.00;23.50;;;;;17.40;89.55;101080.22;5048637;28;45587;-74
2021/07/14 00:02:59;;;;;;;;;32.75;25.25;;;;;17.38;89.48;101076.09;5037669;28;45576;-69
2021/07/14 00:05:24;;;;;;;;;32.00;27.75;;;;;17.38;89.14;101078.75;5049559;28;45491;-69
2021/07/14 00:07:51;;;;;;;;;28.50;27.25;;;;;17.37;89.43;101077.13;5048091;28;45483;-71
2021/07/14 00:10:31;;;;;;;;;30.00;26.75;;;;;17.33;89.67;101079.34;5046559;28;45749;-70
2021/07/14 00:23:27;;;;;;;;;26.25;24.50;;;;;17.23;90.23;101073.44;5052722;28;45467;-72
2021/07/14 00:25:52;;;;;;;;;35.50;30.25;;;;;17.21;90.39;101072.81;5054311;28;45838;-73
2021/07/14 00:28:18;;;;;;;;;27.50;22.50;;;;;17.18;89.88;101079.34;5047495;28;45721;-73
2021/07/14 00:30:49;;;;;;;;;29.00;23.75;;;;;17.17;89.59;101083.00;5055710;28;45647;-71
2021/07/14 00:33:15;;;;;;;;;32.25;27.50;;;;;17.16;89.72;101084.03;5048429;28;45414;-69
2021/07/14 00:35:40;;;;;;;;;26.50;25.25;;;;;17.14;89.45;101088.72;5049282;28;46559;-69
2021/07/14 00:38:06;;;;;;;;;25.50;22.75;;;;;17.15;89.74;101089.56;5052286;28;45437;-71
2021/07/14 00:40:31;;;;;;;;;27.00;24.25;;;;;17.14;89.73;101093.25;5045716;28;45790;-69
2021/07/14 00:42:57;;;;;;;;;30.00;23.75;;;;;17.14;89.62;101087.91;5048174;28;45500;-75
2021/07/14 00:45:22;;;;;;;;;21.00;21.00;;;;;17.12;89.69;101082.75;5049018;28;46255;-71
2021/07/14 00:47:52;;;;;;;;;27.00;22.75;;;;;17.13;89.74;101075.56;5049913;28;45478;-73
2021/07/14 00:50:18;;;;;;;;;28.25;23.25;;;;;17.10;89.80;101070.59;5051031;28;45474;-68
2021/07/14 00:52:43;;;;;;;;;27.75;25.00;;;;;17.10;90.00;101078.59;5051497;28;45392;-70
2021/07/14 00:55:09;;;;;;;;;25.25;21.75;;;;;17.06;89.76;101083.50;5048134;28;46606;-72
2021/07/14 00:57:35;;;;;;;;;27.50;23.25;;;;;17.03;89.94;101083.84;5047527;28;45527;-72
2021/07/14 01:00:01;;;;;;;;;25.50;24.00;;;;;17.02;91.08;101090.19;5056490;28;45583;-74
2021/07/14 01:02:26;;;;;;;;;27.00;23.50;;;;;17.01;90.18;101093.03;5049749;28;45778;-75
2021/07/14 01:05:22;;;;;;;;;29.25;23.00;;;;;16.98;90.11;101079.03;5054421;28;46421;-73
2021/07/14 01:08:04;;;;;;;;;29.00;24.75;;;;;16.95;90.15;101081.25;5045149;28;45592;-74
2021/07/14 01:10:38;;;;;;;;;26.50;23.00;;;;;16.92;90.01;101082.44;5050579;28;45458;-73
2021/07/14 01:13:15;;;;;;;;;24.75;23.00;;;;;16.93;90.25;101088.63;5044391;28;45552;-71
2021/07/14 01:15:48;;;;;;;;;25.25;23.25;;;;;16.89;90.02;101081.97;5045923;28;46727;-69
2021/07/14 01:18:45;;;;;;;;;25.75;22.75;;;;;16.91;90.07;101090.63;5046667;28;45629;-70
2021/07/14 01:21:26;;;;;;;;;28.00;23.00;;;;;16.89;90.04;101082.81;5046812;28;45638;-69
2021/07/14 01:24:04;;;;;;;;;25.00;23.00;;;;;16.88;90.22;101094.50;5046821;28;45841;-72
2021/07/14 01:26:38;;;;;;;;;22.25;20.75;;;;;16.86;90.78;101095.69;5052885;28;45653;-70
2021/07/14 01:29:06;;;;;;;;;27.25;22.25;;;;;16.86;91.21;101101.03;5044937;28;45596;-67
2021/07/14 01:31:33;;;;;;;;;23.50;20.00;;;;;16.82;89.99;101095.25;5045440;28;45857;-71
2021/07/14 01:34:02;;;;;;;;;22.00;19.75;;;;;16.82;90.18;101092.56;5047495;28;45509;-68
2021/07/14 01:36:31;;;;;;;;;21.50;21.25;;;;;16.82;90.03;101095.25;5047732;28;46710;-70
2021/07/14 01:38:58;;;;;;;;;27.00;19.75;;;;;16.82;90.14;101091.75;5048219;28;45554;-73
2021/07/14 01:41:26;;;;;;;;;22.50;19.75;;;;;16.80;90.09;101083.09;5038759;28;45605;-69
2021/07/14 01:43:58;;;;;;;;;20.25;19.75;;;;;16.77;90.02;101081.56;5048066;28;45505;-68
2021/07/14 01:46:26;;;;;;;;;20.25;17.50;;;;;16.75;89.78;101073.75;5044851;28;47029;-69
2021/07/14 01:48:55;;;;;;;;;16.50;15.25;;;;;16.75;89.55;101073.75;5046828;28;45504;-70
2021/07/14 01:51:23;;;;;;;;;14.25;12.75;;;;;16.75;90.35;101080.91;5041090;28;45910;-67
2021/07/14 01:53:49;;;;;;;;;16.50;14.75;;;;;16.74;89.70;101082.78;5046596;28;45905;-68
2021/07/14 01:56:15;;;;;;;;;22.25;15.00;;;;;16.71;89.68;101071.59;5045583;28;45766;-69
2021/07/14 01:58:43;;;;;;;;;16.25;15.25;;;;;16.70;89.45;101073.47;5045237;28;46033;-70
2021/07/14 02:01:12;;;;;;;;;18.50;17.00;;;;;16.68;89.50;101077.31;5047463;28;45607;-69
2021/07/14 02:03:53;;;;;;;;;16.75;13.00;;;;;16.66;90.13;101066.81;5047318;28;45538;-70
2021/07/14 02:06:20;;;;;;;;;18.75;14.75;;;;;16.64;89.69;101070.69;5049555;28;46220;-68
2021/07/14 02:08:46;;;;;;;;;17.00;13.00;;;;;16.64;89.79;101057.34;5049574;28;45603;-68
2021/07/14 02:11:12;;;;;;;;;14.50;13.25;;;;;16.62;89.26;101062.88;5046483;28;45860;-72
2021/07/14 02:13:38;;;;;;;;;16.50;11.00;;;;;16.61;89.79;101058.53;5050221;28;45891;-68
2021/07/14 02:16:06;;;;;;;;;10.50;10.50;;;;;16.61;89.12;101052.38;5043867;28;46266;-70
2021/07/14 02:18:40;;;;;;;;;12.25;9.25;;;;;16.56;88.44;101058.25;5045739;28;45620;-68
2021/07/14 02:21:05;;;;;;;;;11.50;9.75;;;;;16.54;88.59;101055.78;5046435;28;45512;-68
2021/07/14 02:23:31;;;;;;;;;9.50;9.00;;;;;16.50;88.53;101054.47;5047961;28;45886;-69
2021/07/14 02:26:01;;;;;;;;;11.50;8.00;;;;;16.48;89.05;101067.16;5044887;28;47142;-70
2021/07/14 02:28:26;;;;;;;;;9.75;9.50;;;;;16.47;89.08;101065.50;5046548;28;45569;-69
2021/07/14 02:30:51;;;;;;;;;12.25;10.50;;;;;16.45;88.83;101070.19;5044575;28;46037;-70
2021/07/14 02:33:17;;;;;;;;;13.00;9.00;;;;;16.43;88.90;101072.19;5045117;28;45482;-69
2021/07/14 02:35:47;;;;;;;;;9.50;9.50;;;;;16.43;89.22;101077.53;5051386;28;45578;-69
2021/07/14 02:38:19;;;;;;;;;9.00;9.00;;;;;16.41;89.18;101079.53;5046492;28;45544;-70
2021/07/14 02:41:01;;;;;;;;;11.25;10.00;;;;;16.39;89.09;101084.22;5048322;28;45550;-72
2021/07/14 02:43:28;;;;;;;;;10.00;10.00;;;;;16.39;89.16;101089.56;5045118;28;45383;-70
2021/07/14 02:45:57;;;;;;;;;11.50;9.25;;;;;16.36;88.87;101091.75;5043441;28;46466;-69
2021/07/14 02:48:25;;;;;;;;;11.00;10.25;;;;;16.36;88.75;101089.09;5040315;28;45556;-68
2021/07/14 02:50:52;;;;;;;;;13.00;10.50;;;;;16.34;88.54;101092.78;5053417;28;45340;-69
2021/07/14 02:53:22;;;;;;;;;12.00;10.50;;;;;16.35;89.13;101098.94;5045939;28;45433;-72
2021/07/14 02:55:52;;;;;;;;;13.00;12.50;;;;;16.35;89.11;101098.94;5047747;28;46048;-69
2021/07/14 02:58:22;;;;;;;;;13.50;11.75;;;;;16.34;89.45;101094.59;5030134;28;45546;-72
2021/07/14 03:00:48;;;;;;;;;12.75;11.75;;;;;16.33;89.60;101100.97;5051269;28;45785;-69
2021/07/14 03:03:14;;;;;;;;;14.75;11.75;;;;;16.34;89.17;101097.25;5049467;28;45486;-69
2021/07/14 03:05:40;;;;;;;;;13.50;11.75;;;;;16.33;89.09;101095.63;5052088;28;46428;-69
2021/07/14 03:08:13;;;;;;;;;16.25;13.00;;;;;16.32;89.29;101091.31;5053741;28;45504;-72
2021/07/14 03:10:38;;;;;;;;;16.00;12.75;;;;;16.32;89.16;101093.97;5046551;28;45497;-69
2021/07/14 03:13:07;;;;;;;;;12.00;10.25;;;;;16.30;88.91;101090.66;5034869;28;45592;-70
2021/07/14 03:15:36;;;;;;;;;13.25;10.00;;;;;16.29;88.92;101080.97;5046668;28;46475;-72
2021/07/14 03:18:03;;;;;;;;;13.00;10.75;;;;;16.28;89.66;101090.81;5048402;28;45664;-69
2021/07/14 03:20:28;;;;;;;;;10.25;9.00;;;;;16.28;89.45;101088.16;5050355;28;45438;-70
2021/07/14 03:22:55;;;;;;;;;9.50;9.00;;;;;16.27;89.34;101086.50;5047663;28;45509;-70
2021/07/14 03:25:21;;;;;;;;;11.50;9.75;;;;;16.27;89.47;101098.97;5048014;28;45611;-68
2021/07/14 03:27:49;;;;;;;;;10.25;9.50;;;;;16.27;89.28;101107.84;5047544;28;45505;-67
2021/07/14 03:30:16;;;;;;;;;9.25;7.25;;;;;16.27;89.64;101107.84;5029255;28;45452;-72
2021/07/14 03:32:41;;;;;;;;;9.25;8.75;;;;;16.28;89.46;101114.00;5051421;28;45613;-69
2021/07/14 03:35:08;;;;;;;;;11.00;8.50;;;;;16.28;89.76;101119.34;5049489;28;46504;-71
2021/07/14 03:37:35;;;;;;;;;7.75;7.25;;;;;16.29;89.11;101118.31;5049224;28;45567;-72
2021/07/14 03:40:04;;;;;;;;;8.00;7.25;;;;;16.30;89.20;101120.00;5058585;28;45688;-69
2021/07/14 03:42:30;;;;;;;;;7.75;7.00;;;;;16.30;89.20;101117.31;5051063;28;45491;-70
2021/07/14 03:44:58;;;;;;;;;9.25;8.00;;;;;16.28;89.64;101122.81;5048941;28;47109;-71
2021/07/14 03:47:24;;;;;;;;;8.00;7.25;;;;;16.31;89.40;101125.13;5048914;28;45520;-69
2021/07/14 03:49:50;;;;;;;;;8.75;7.75;;;;;16.31;90.03;101119.78;5052252;28;45452;-69
2021/07/14 03:52:19;;;;;;;;;8.25;8.00;;;;;16.33;89.59;101130.28;5052040;28;45598;-70
2021/07/14 03:54:45;;;;;;;;;11.00;8.25;;;;;16.33;89.58;101130.28;5049198;28;46806;-68
2021/07/14 03:57:11;;;;;;;;;8.25;6.50;;;;;16.35;90.08;101128.28;5048810;28;45483;-70
2021/07/14 03:59:38;;;;;;;;;9.75;7.50;;;;;16.34;89.82;101131.94;5049960;28;45662;-70
2021/07/14 04:02:07;;;;;;;;;10.00;8.50;;;;;16.35;89.01;101136.28;5051958;28;45532;-69
2021/07/14 04:04:32;;;;;;;;;7.25;6.75;;;;;16.35;89.75;101138.94;5046973;28;45650;-70
2021/07/14 04:07:02;;;;;;;;;9.00;7.25;;;;;16.36;89.13;101137.94;5052248;28;45853;-68
2021/07/14 04:09:28;;;;;;;;;8.00;8.00;;;;;16.34;89.12;101134.59;5047770;28;45489;-71
2021/07/14 04:11:56;;;;;;;;;8.50;7.00;;;;;16.35;88.95;101138.94;5050766;28;45601;-68
2021/07/14 04:14:23;;;;;;;;;8.50;7.75;;;;;16.34;89.36;101142.59;5050461;28;45560;-69
2021/07/14 04:16:49;;;;;;;;;6.00;6.00;;;;;16.33;89.52;101149.78;5044146;28;45632;-68
2021/07/14 04:19:15;;;;;;;;;9.50;6.00;;;;;16.33;89.00;101147.13;5049783;28;45528;-68
2021/07/14 04:21:40;;;;;;;;;7.50;7.50;;;;;16.34;89.53;101139.94;5049622;28;45524;-68
2021/07/14 04:24:06;;;;;;;;;5.75;5.50;;;;;16.35;89.19;101141.63;5046177;28;46111;-71
2021/07/14 04:26:32;;;;;;;;;7.50;7.50;;;;;16.34;89.26;101137.28;5047377;28;45512;-70
2021/07/14 04:28:57;;;;;;;;;6.75;6.50;;;;;16.32;88.77;101142.81;5045506;28;45581;-69
2021/07/14 04:31:23;;;;;;;;;6.50;6.50;;;;;16.31;89.46;101146.47;5047795;28;45533;-70
2021/07/14 04:33:48;;;;;;;;;7.50;6.00;;;;;16.31;88.98;101140.31;5047068;28;46818;-68
2021/07/14 04:36:14;;;;;;;;;8.00;6.25;;;;;16.30;89.04;101136.00;5047663;28;45420;-72
2021/07/14 04:38:39;;;;;;;;;8.50;7.50;;;;;16.30;89.38;101133.31;5049380;28;45427;-71
2021/07/14 04:41:05;;;;;;;;;7.50;7.50;;;;;16.30;89.37;101133.31;5044989;28;45687;-68
2021/07/14 04:43:31;;;;;;;;;7.75;5.25;;;;;16.30;90.02;101139.47;5046237;28;45456;-71
2021/07/14 04:45:58;;;;;;;;;7.00;6.00;;;;;16.30;89.82;101136.81;5029975;28;45682;-69
2021/07/14 04:48:24;;;;;;;;;13.75;9.00;;;;;16.32;88.94;101142.81;5046343;28;45588;-70
2021/07/14 04:50:49;;;;;;;;;8.00;8.00;;;;;16.34;89.41;101147.94;5049008;28;45646;-69
2021/07/14 04:53:15;;;;;;;;;7.00;7.00;;;;;16.34;88.48;101146.13;5034430;28;47692;-69
2021/07/14 04:55:41;;;;;;;;;6.25;6.25;;;;;16.34;89.17;101151.47;5042463;28;45824;-69
2021/07/14 04:58:06;;;;;;;;;9.75;8.00;;;;;16.32;88.66;101145.47;5046316;28;45618;-70
2021/07/14 05:00:32;;;;;;;;;9.25;8.25;;;;;16.32;89.12;101149.97;5046074;28;45413;-71
2021/07/14 05:02:57;;;;;;;;;9.50;7.00;;;;;16.31;89.00;101148.31;5053556;28;47043;-70
2021/07/14 05:05:23;;;;;;;;;9.75;9.75;;;;;16.31;89.03;101159.81;5029475;28;45519;-70
2021/07/14 05:07:50;;;;;;;;;12.25;8.25;;;;;16.30;89.06;101162.66;5047676;28;45657;-69
2021/07/14 05:10:16;;;;;;;;;8.75;8.75;;;;;16.31;88.56;101166.97;5042877;28;45469;-70
2021/07/14 05:12:42;;;;;;;;;7.50;7.50;;;;;16.31;88.99;101166.97;5047131;28;45535;-69
2021/07/14 05:15:09;;;;;;;;;10.00;7.00;;;;;16.32;89.18;101171.31;5045791;28;45650;-70
2021/07/14 05:17:34;;;;;;;;;10.00;8.00;;;;;16.33;89.50;101175.63;5048630;28;45445;-68
2021/07/14 05:20:00;;;;;;;;;10.50;7.25;;;;;16.35;89.55;101170.97;5050207;28;45572;-69
2021/07/14 05:22:25;;;;;;;;;9.75;9.00;;;;;16.36;89.20;101177.13;5046148;28;45599;-69
2021/07/14 05:24:50;;;;;;;;;7.50;7.25;;;;;16.38;89.08;101172.44;5046268;28;45572;-70
2021/07/14 05:27:16;;;;;;;;;10.00;9.00;;;;;16.39;89.11;101172.25;5046669;28;45873;-69
2021/07/14 05:29:41;;;;;;;;;10.25;8.50;;;;;16.39;89.33;101172.25;5049259;28;45529;-69
2021/07/14 05:32:07;;;;;;;;;7.00;7.00;;;;;16.38;89.01;101178.59;5045731;28;46475;-68
2021/07/14 05:34:32;;;;;;;;;8.75;7.50;;;;;16.40;89.37;101178.44;5048692;28;45567;-68
2021/07/14 05:36:59;;;;;;;;;10.75;9.00;;;;;16.43;89.20;101181.56;5046571;28;45496;-69
2021/07/14 05:39:25;;;;;;;;;9.00;8.75;;;;;16.46;88.76;101178.53;5042967;28;45502;-68
2021/07/14 05:41:51;;;;;;;;;12.00;8.25;;;;;16.47;89.28;101180.22;5050547;28;45808;-69
2021/07/14 05:44:16;;;;;;;;;10.50;9.00;;;;;16.51;89.10;101183.34;5048936;28;45429;-69
2021/07/14 05:46:44;;;;;;;;;10.00;9.00;;;;;16.54;89.31;101188.31;5046517;28;45699;-68
2021/07/14 05:49:09;;;;;;;;;10.00;10.00;;;;;16.56;88.99;101181.81;5045804;28;45478;-70
2021/07/14 05:51:35;;;;;;;;;8.50;8.50;;;;;16.59;89.10;101185.13;5045181;28;46400;-69
2021/07/14 05:54:00;;;;;;;;;10.75;8.50;;;;;16.61;88.72;101189.28;5047853;28;45513;-70
2021/07/14 05:56:26;;;;;;;;;8.00;7.00;;;;;16.61;88.69;101173.25;5050545;28;46087;-72
2021/07/14 05:58:51;;;;;;;;;8.25;7.75;;;;;16.61;88.50;101188.44;5046873;28;45530;-72
2021/07/14 06:01:17;;;;;;;;;10.00;8.75;;;;;16.61;89.02;101178.59;5043877;28;48316;-70
2021/07/14 06:03:43;;;;;;;;;11.50;8.75;;;;;16.61;89.02;101178.59;5045789;28;45507;-73
2021/07/14 06:06:08;;;;;;;;;8.50;8.50;;;;;16.62;88.37;101184.78;5045954;28;45815;-70
2021/07/14 06:08:33;;;;;;;;;12.50;9.25;;;;;16.62;88.67;101179.47;5047054;28;45829;-70
2021/07/14 06:10:59;;;;;;;;;11.00;8.00;;;;;16.65;88.50;101184.44;5046560;28;45556;-69
2021/07/14 06:13:24;;;;;;;;;9.00;9.00;;;;;16.66;88.72;101180.75;5046656;28;45545;-69
2021/07/14 06:15:50;;;;;;;;;10.50;10.00;;;;;16.69;88.73;101183.03;5033406;28;45623;-72
2021/07/14 06:18:15;;;;;;;;;7.50;7.50;;;;;16.71;88.38;101175.69;5047821;28;45594;-73
2021/07/14 06:20:41;;;;;;;;;14.75;10.00;;;;;16.72;88.04;101182.72;5045498;28;46305;-72
2021/07/14 06:23:06;;;;;;;;;10.00;7.75;;;;;16.73;88.41;101179.03;5046072;28;45520;-68
2021/07/14 06:25:32;;;;;;;;;11.00;9.75;;;;;16.72;87.99;101185.38;5025230;28;45821;-68
2021/07/14 06:28:00;;;;;;;;;8.25;8.00;;;;;16.73;87.53;101187.03;5043720;28;45642;-73
2021/07/14 06:30:25;;;;;;;;;10.25;8.50;;;;;16.72;88.07;101183.53;5042308;28;46996;-71
2021/07/14 06:32:52;;;;;;;;;9.50;8.00;;;;;16.73;87.86;101187.84;5048077;28;45875;-72
2021/07/14 06:35:19;;;;;;;;;9.00;9.00;;;;;16.75;87.81;101191.19;5046084;28;45507;-72
2021/07/14 06:37:46;;;;;;;;;10.75;8.00;;;;;16.75;87.66;101191.19;5045545;28;45691;-72
2021/07/14 06:40:12;;;;;;;;;11.25;7.00;;;;;16.77;87.79;101188.34;5044360;28;45611;-68
2021/07/14 06:42:39;;;;;;;;;10.00;9.00;;;;;16.82;87.58;101207.34;5044282;28;45570;-68
2021/07/14 06:45:08;;;;;;;;;6.25;6.25;;;;;16.85;87.57;101209.66;5045225;28;45489;-71
2021/07/14 06:47:34;;;;;;;;;9.00;8.00;;;;;16.87;87.42;101204.16;5048570;28;45443;-76
2021/07/14 06:50:00;;;;;;;;;7.75;6.75;;;;;16.90;87.50;101209.13;5026064;28;46701;-72
2021/07/14 06:52:25;;;;;;;;;6.50;6.50;;;;;16.95;87.58;101201.41;5050184;28;45452;-71
2021/07/14 06:54:50;;;;;;;;;6.00;5.00;;;;;17.01;86.38;101194.50;5055408;28;45648;-72
2021/07/14 06:57:16;;;;;;;;;6.00;5.25;;;;;17.03;86.67;101193.31;5046931;28;45601;-72
2021/07/14 06:59:41;;;;;;;;;7.00;6.25;;;;;17.04;86.78;101194.16;5047645;28;46211;-71
2021/07/14 07:02:07;;;;;;;;;6.00;6.00;;;;;17.06;86.55;101192.13;5050971;28;45600;-72
2021/07/14 07:04:33;;;;;;;;;7.50;6.00;;;;;17.07;86.61;101201.81;5048945;28;45597;-72
2021/07/14 07:06:59;;;;;;;;;6.00;6.00;;;;;17.07;86.42;101199.97;5056342;28;45797;-73
2021/07/14 07:09:25;;;;;;;;;6.25;6.00;;;;;17.08;86.64;101203.47;5057649;28;45544;-73
2021/07/14 07:11:51;;;;;;;;;5.75;4.50;;;;;17.10;86.10;101204.09;5052351;28;45461;-71
2021/07/14 07:14:17;;;;;;;;;5.50;5.00;;;;;17.16;86.46;101204.22;5061216;28;45427;-74
2021/07/14 07:16:43;;;;;;;;;6.00;6.00;;;;;17.24;87.29;101203.31;5052575;28;45438;-71
2021/07/14 07:19:08;;;;;;;;;8.00;7.75;;;;;17.35;86.40;101208.19;5047997;28;45981;-70
2021/07/14 07:21:34;;;;;;;;;10.00;10.00;;;;;17.46;86.70;101208.75;5049692;28;45978;-71
2021/07/14 07:23:59;;;;;;;;;10.00;6.25;;;;;17.60;86.33;101207.94;5049834;28;45391;-71
2021/07/14 07:26:26;;;;;;;;;6.75;6.75;;;;;17.70;85.58;101213.84;5048046;28;45535;-74
2021/07/14 07:28:58;;;;;;;;;7.00;7.00;;;;;17.75;84.83;101211.44;5027523;28;48258;-73
2021/07/14 07:31:24;;;;;;;;;7.50;7.50;;;;;17.78;85.05;101207.59;5053798;28;45397;-72
2021/07/14 07:33:50;;;;;;;;;7.75;5.50;;;;;17.80;84.64;101206.44;5049060;28;45516;-69
2021/07/14 07:36:15;;;;;;;;;7.00;6.00;;;;;17.84;84.54;101202.34;5045161;28;45659;-71
2021/07/14 07:38:41;;;;;;;;;7.00;6.00;;;;;17.88;84.35;101204.63;5055418;28;46040;-70
2021/07/14 07:41:06;;;;;;;;;7.00;7.00;;;;;17.94;83.72;101203.91;5047062;28;46009;-74
2021/07/14 07:43:33;;;;;;;;;8.50;6.25;;;;;18.01;84.35;101205.66;5052480;28;45503;-72
2021/07/14 07:45:59;;;;;;;;;7.50;7.50;;;;;18.08;83.72;101208.41;5051985;28;45453;-73
2021/07/14 07:48:25;;;;;;;;;9.25;7.50;;;;;18.16;84.05;101210.97;5048112;28;45540;-71
2021/07/14 07:50:51;;;;;;;;;8.00;7.00;;;;;18.28;84.00;101214.00;5053407;28;45556;-72
2021/07/14 07:53:18;;;;;;;;;7.50;7.50;;;;;18.47;83.42;101212.53;5049918;28;45946;-72
2021/07/14 07:55:45;;;;;;;;;9.25;7.25;;;;;18.72;83.04;101206.81;5049611;28;45434;-70
2021/07/14 07:58:11;;;;;;;;;10.00;8.75;;;;;18.84;81.30;101208.00;5053889;28;45878;-69
2021/07/14 08:00:36;;;;;;;;;9.00;8.00;;;;;18.88;81.80;101217.31;5055295;28;45522;-70
2021/07/14 08:03:03;;;;;;;;;6.50;6.50;;;;;18.85;81.72;101215.03;5052426;28;45527;-74
2021/07/14 08:05:29;;;;;;;;;7.75;7.75;;;;;18.78;81.59;101216.81;5050921;28;45542;-71
2021/07/14 08:07:55;;;;;;;;;7.75;6.25;;;;;18.68;80.81;101215.25;5051266;28;45524;-69
2021/07/14 08:10:20;;;;;;;;;6.50;6.50;;;;;18.56;80.94;101230.16;5053680;28;45412;-69
2021/07/14 08:12:46;;;;;;;;;7.25;7.25;;;;;18.50;81.36;101227.41;5051956;28;45582;-70
2021/07/14 08:15:11;;;;;;;;;8.00;8.00;;;;;18.42;81.93;101231.88;5049947;28;45463;-71
2021/07/14 08:17:38;;;;;;;;;7.50;7.50;;;;;18.36;81.41;101231.78;5058939;28;47560;-72
2021/07/14 08:20:06;;;;;;;;;5.75;5.75;;;;;18.27;80.40;101233.72;5046210;28;45696;-71
2021/07/14 08:22:31;;;;;;;;;6.25;6.25;;;;;18.16;81.40;101229.69;5049932;28;45684;-73
2021/07/14 08:24:57;;;;;;;;;8.50;5.25;;;;;18.08;81.76;101237.84;5048059;28;45413;-72
2021/07/14 08:27:24;;;;;;;;;9.00;7.25;;;;;18.00;81.26;101237.91;5049981;28;45866;-72
2021/07/14 08:29:50;;;;;;;;;5.00;4.75;;;;;17.94;81.87;101241.34;5054842;28;45447;-71
2021/07/14 08:32:16;;;;;;;;;6.75;6.75;;;;;17.93;82.44;101245.06;5049126;28;45650;-72
2021/07/14 08:34:41;;;;;;;;;6.25;5.50;;;;;17.91;82.29;101239.88;5052567;28;45475;-71
2021/07/14 08:37:06;;;;;;;;;8.00;7.00;;;;;17.92;83.15;101248.72;5052561;28;46009;-69
2021/07/14 08:39:33;;;;;;;;;6.50;6.00;;;;;17.93;82.66;101253.06;5049277;28;45521;-73
2021/07/14 08:42:01;;;;;;;;;9.25;7.00;;;;;17.93;83.19;101248.56;5051120;28;45786;-71
2021/07/14 08:44:27;;;;;;;;;7.00;7.00;;;;;17.96;82.99;101253.53;5054201;28;45564;-72
2021/07/14 08:46:53;;;;;;;;;7.25;6.00;;;;;18.00;82.84;101254.81;5042223;28;46623;-72
2021/07/14 08:49:20;;;;;;;;;8.75;7.00;;;;;18.03;82.66;101246.41;5048946;28;45671;-69
2021/07/14 08:51:45;;;;;;;;;6.50;6.50;;;;;18.06;82.70;101250.56;5052423;28;45478;-70
2021/07/14 08:54:11;;;;;;;;;5.00;5.00;;;;;18.05;80.24;101255.09;5046328;28;45699;-72
2021/07/14 08:56:37;;;;;;;;;5.00;5.00;;;;;18.08;80.58;101253.88;5050716;28;45439;-71
2021/07/14 08:59:02;;;;;;;;;6.00;4.50;;;;;18.14;81.21;101254.97;5049997;28;45526;-71
2021/07/14 09:01:28;;;;;;;;;6.00;5.00;;;;;18.21;80.21;101261.25;5050363;28;45762;-70
2021/07/14 09:03:54;;;;;;;;;6.25;5.75;;;;;18.22;79.94;101258.41;5051485;28;45987;-72
2021/07/14 09:06:20;;;;;;;;;8.25;6.00;;;;;18.26;79.45;101261.50;5046890;28;46167;-71
2021/07/14 09:08:45;;;;;;;;;5.75;5.75;;;;;18.26;81.05;101267.69;5050859;28;45417;-72
2021/07/14 09:11:11;;;;;;;;;6.33;6.00;;;;;18.29;80.87;101265.66;5029508;28;45641;-71
2021/07/14 09:13:40;;;;;;;;;5.50;5.50;;;;;18.26;79.54;101262.34;5054279;28;45500;-73
2021/07/14 09:16:06;;;;;;;;;5.25;4.50;;;;;18.25;79.38;101258.00;5034133;28;48310;-71
2021/07/14 09:18:32;;;;;;;;;5.00;5.00;;;;;18.29;79.26;101257.63;5030806;28;45631;-77
2021/07/14 09:20:58;;;;;;;;;8.50;6.75;;;;;18.33;80.43;101264.28;5051883;28;45551;-68
2021/07/14 09:23:29;;;;;;;;;5.25;5.25;;;;;18.40;80.58;101265.19;5049942;28;45610;-72
2021/07/14 09:26:12;;;;;;;;;7.00;5.50;;;;;18.41;81.42;101272.19;5044499;28;46485;-76
2021/07/14 09:28:39;;;;;;;;;4.50;4.50;;;;;18.46;80.80;101267.09;5042136;28;45542;-70
2021/07/14 09:31:10;;;;;;;;;4.50;4.50;;;;;18.50;81.12;101262.22;5047985;28;45971;-72
2021/07/14 09:33:40;;;;;;;;;8.50;6.00;;;;;18.52;80.05;101261.00;5046240;28;45551;-72
2021/07/14 09:36:05;;;;;;;;;7.25;6.25;;;;;18.54;80.57;101264.28;5058175;28;46706;-68
2021/07/14 09:38:38;;;;;;;;;5.25;5.25;;;;;18.57;78.84;101266.63;5033449;28;45928;-72
2021/07/14 09:41:09;;;;;;;;;7.50;5.00;;;;;18.66;79.14;101272.66;5045252;28;45622;-75
2021/07/14 09:43:36;;;;;;;;;5.75;5.75;;;;;18.77;79.11;101266.00;5046868;28;45841;-71
2021/07/14 09:46:12;;;;;;;;;6.00;6.00;;;;;18.85;78.92;101263.22;5047191;28;45607;-71
2021/07/14 09:48:42;;;;;;;;;7.50;4.50;;;;;18.91;78.24;101270.47;5044602;28;45668;-74
2021/07/14 09:51:12;;;;;;;;;5.75;5.25;;;;;18.91;78.17;101268.63;5054556;28;45532;-73
2021/07/14 09:53:40;;;;;;;;;4.25;4.25;;;;;18.90;77.57;101276.88;5047309;28;45422;-70
2021/07/14 09:56:23;;;;;;;;;5.75;5.00;;;;;18.88;77.63;101279.72;5046071;28;45658;-72
2021/07/14 09:59:09;;;;;;;;;4.00;4.00;;;;;18.84;77.53;101277.63;5033570;28;45532;-75
2021/07/14 10:01:45;;;;;;;;;6.75;5.25;;;;;18.80;78.22;101276.38;5053014;28;45476;-72
2021/07/14 10:04:12;;;;;;;;;5.75;5.00;;;;;18.78;77.87;101289.94;5047622;28;46009;-70
2021/07/14 10:06:38;;;;;;;;;5.00;5.00;;;;;18.78;78.52;101283.75;5055717;28;45793;-73
2021/07/14 10:09:04;;;;;;;;;6.75;5.50;;;;;18.81;79.16;101289.53;5046104;28;45551;-73
2021/07/14 10:11:32;;;;;;;;;6.50;6.00;;;;;18.87;78.95;101283.44;5050319;28;45485;-69
2021/07/14 10:14:04;;;;;;;;;6.25;5.00;;;;;18.91;79.45;101279.34;5047165;28;45689;-73
2021/07/14 10:16:35;;;;;;;;;4.00;4.00;;;;;18.94;78.00;101288.88;5041128;28;46419;-68
2021/07/14 10:19:08;;;;;;;;;5.00;4.25;;;;;18.94;76.92;101290.69;5050858;28;45959;-71
2021/07/14 10:21:42;;;;;;;;;5.00;4.25;;;;;18.91;76.54;101294.59;5049064;28;45612;-73
2021/07/14 10:24:11;;;;;;;;;5.75;4.50;;;;;18.90;76.74;101292.94;5047000;28;45486;-73
2021/07/14 10:26:38;;;;;;;;;7.25;6.00;;;;;18.94;76.86;101294.22;5049078;28;45632;-72
2021/07/14 10:29:05;;;;;;;;;3.50;3.50;;;;;19.01;76.74;101294.28;5045844;28;45896;-72
2021/07/14 10:31:31;;;;;;;;;7.00;5.50;;;;;19.11;78.39;101290.28;5048447;28;45584;-72
2021/07/14 10:33:56;;;;;;;;;6.00;5.00;;;;;19.30;76.94;101293.31;5048806;28;45612;-68
2021/07/14 10:36:25;;;;;;;;;5.25;4.75;;;;;19.55;77.64;101301.75;5050475;28;45952;-71
2021/07/14 10:38:55;;;;;;;;;5.25;5.25;;;;;19.78;76.87;101290.78;5049957;28;45518;-72
2021/07/14 10:41:22;;;;;;;;;6.00;5.00;;;;;19.97;74.77;101289.25;5045336;28;45891;-71
2021/07/14 10:43:50;;;;;;;;;7.75;6.00;;;;;20.04;73.69;101294.69;5044074;28;45953;-72
2021/07/14 10:46:18;;;;;;;;;6.00;5.25;;;;;20.05;74.05;101301.69;5049997;28;45937;-69
2021/07/14 10:48:43;;;;;;;;;5.00;5.00;;;;;20.04;73.74;101297.34;5053185;28;45421;-71
2021/07/14 10:51:09;;;;;;;;;5.75;5.75;;;;;20.07;74.90;101305.00;5041659;28;45451;-68
2021/07/14 10:53:38;;;;;;;;;6.25;6.00;;;;;20.19;74.20;101303.41;5049448;28;45375;-68
2021/07/14 10:56:06;;;;;;;;;7.25;6.00;;;;;20.33;73.91;101301.63;5040984;28;45927;-74
2021/07/14 10:58:32;;;;;;;;;5.00;5.00;;;;;20.50;73.52;101305.63;5041586;28;45892;-71
2021/07/14 11:00:57;;;;;;;;;8.00;6.50;;;;;20.73;72.29;101304.50;5047575;28;45512;-71
2021/07/14 11:03:41;;;;;;;;;8.25;7.00;;;;;20.90;72.38;101318.38;5055368;28;45516;-71
2021/07/14 11:06:09;;;;;;;;;5.00;5.00;;;;;20.98;71.01;101312.81;5055037;28;45830;-71
2021/07/14 11:08:48;;;;;;;;;7.25;7.25;;;;;21.11;71.19;101318.19;5048342;28;45407;-76
2021/07/14 11:11:19;;;;;;;;;9.00;7.25;;;;;21.26;71.02;101315.31;5051568;28;45572;-70
2021/07/14 11:13:51;;;;;;;;;7.00;5.00;;;;;21.38;70.63;101310.97;5039514;28;45491;-70
2021/07/14 11:16:31;;;;;;;;;7.50;5.00;;;;;21.44;69.71;101322.81;5047078;28;46998;-68
2021/07/14 11:19:17;;;;;;;;;9.00;6.00;;;;;21.42;70.17;101316.81;5052875;28;45557;-70
2021/07/14 11:21:46;;;;;;;;;5.75;5.25;;;;;21.37;70.11;101319.25;5052174;28;45725;-74
2021/07/14 11:24:12;;;;;;;;;7.75;6.25;;;;;21.35;69.26;101321.31;5051076;28;45461;-72
2021/07/14 11:26:37;;;;;;;;;7.00;6.00;;;;;21.52;69.37;101317.22;5051729;28;46896;-69
2021/07/14 11:29:12;;;;;;;;;6.00;6.00;;;;;21.78;70.12;101312.84;5053492;28;45391;-72
2021/07/14 11:31:39;;;;;;;;;5.00;5.00;;;;;22.06;69.27;101313.41;5054708;28;45501;-70